Time;durP1;ratioP1;P1;durP2;ratioP2;P2;SDS_P1;SDS_P2;PMS_P1;PMS_P2;Temp;Humidity;BMP_temperature;BMP_pressure;BME280_temperature;BME280_humidity;BME280_pressure;Samples;Min_cycle;Max_cycle;Signal;HPM_P1;HPM_P2
2022/09/17 00:00:57;;;;;;;5.72;1.70;;;;;;;15.77;66.08;99915.84;5031461;27;97432;-65
2022/09/17 00:03:25;;;;;;;4.15;1.80;;;;;;;15.60;66.88;99913.53;5032249;28;96805;-66
2022/09/17 00:06:01;;;;;;;6.90;1.52;;;;;;;15.80;66.29;99913.00;5031422;28;99581;-66
2022/09/17 00:08:32;;;;;;;8.27;2.83;;;;;;;15.53;66.89;99923.75;5032030;27;99219;-66
2022/09/17 00:11:06;;;;;;;7.25;1.55;;;;;;;15.61;66.97;99925.03;5031873;28;96699;-65
2022/09/17 00:13:35;;;;;;;6.47;1.20;;;;;;;15.61;66.69;99925.03;5031992;28;96808;-65
2022/09/17 00:16:02;;;;;;;8.38;1.83;;;;;;;15.45;67.08;99925.19;5027001;27;98864;-65
2022/09/17 00:18:28;;;;;;;3.97;1.58;;;;;;;15.25;68.19;99936.31;5031780;27;97710;-66
2022/09/17 00:20:55;;;;;;;8.10;1.58;;;;;;;15.51;67.23;99938.06;5030872;27;96841;-65
2022/09/17 00:23:22;;;;;;;10.75;1.90;;;;;;;15.68;66.76;99948.47;5031945;28;96953;-66
2022/09/17 00:25:49;;;;;;;6.88;1.13;;;;;;;15.96;65.85;99944.72;5030955;27;97712;-65
2022/09/17 00:28:15;;;;;;;7.03;1.38;;;;;;;15.95;65.73;99943.84;5030439;28;98846;-66
2022/09/17 00:30:43;;;;;;;10.75;1.48;;;;;;;16.31;64.30;99944.88;5031799;27;96775;-65
2022/09/17 00:33:12;;;;;;;6.55;0.98;;;;;;;15.88;65.42;99945.25;5031402;27;96896;-66
2022/09/17 00:35:39;;;;;;;7.15;1.42;;;;;;;15.84;65.85;99950.91;5031815;27;102009;-68
2022/09/17 00:38:05;;;;;;;6.65;1.45;;;;;;;15.80;65.78;99952.94;5031417;27;99210;-65
2022/09/17 00:40:34;;;;;;;10.57;1.75;;;;;;;15.95;65.67;99951.84;5031374;28;96718;-65
2022/09/17 00:43:01;;;;;;;7.68;1.50;;;;;;;16.15;64.86;99954.94;5032020;28;96904;-65
2022/09/17 00:45:28;;;;;;;5.40;1.08;;;;;;;16.20;64.63;99951.00;5031115;28;98829;-66
2022/09/17 00:47:59;;;;;;;7.20;1.67;;;;;;;16.17;64.75;99961.88;5031053;28;98929;-65
2022/09/17 00:50:30;;;;;;;5.63;1.55;;;;;;;16.05;64.67;99962.72;5031546;28;96691;-66
2022/09/17 00:52:59;;;;;;;7.10;1.73;;;;;;;15.92;65.71;99959.22;5031556;27;96595;-66
2022/09/17 00:55:34;;;;;;;6.80;1.45;;;;;;;16.29;64.95;99968.97;5031213;28;99166;-65
2022/09/17 00:58:05;;;;;;;7.68;1.60;;;;;;;15.21;67.89;99964.13;5033125;27;98907;-68
2022/09/17 01:00:32;;;;;;;7.95;1.10;;;;;;;15.42;67.38;99968.00;5035572;28;96756;-65
2022/09/17 01:02:59;;;;;;;9.68;1.60;;;;;;;15.54;67.23;99967.19;5034973;27;96774;-66
2022/09/17 01:05:33;;;;;;;5.57;1.83;;;;;;;15.52;67.45;99971.72;5033854;28;99289;-66
2022/09/17 01:08:11;;;;;;;10.90;1.88;;;;;;;15.54;67.16;99972.53;5035233;27;99022;-65
2022/09/17 01:11:12;;;;;;;9.75;1.50;;;;;;;15.80;66.45;99978.72;5031926;28;96707;-65
2022/09/17 01:13:52;;;;;;;18.00;2.00;;;;;;;15.64;66.79;99988.72;5020474;27;97003;-66
2022/09/17 01:16:26;;;;;;;8.75;1.58;;;;;;;15.90;66.03;99985.09;5033246;28;99244;-67
2022/09/17 01:19:09;;;;;;;8.75;1.60;;;;;;;16.22;64.84;99983.72;5032657;28;98361;-65
2022/09/17 01:21:56;;;;;;;8.25;1.40;;;;;;;15.98;65.61;99993.44;5029944;28;96753;-66
2022/09/17 01:24:57;;;;;;;2.67;0.63;;;;;;;15.36;67.21;99985.22;5032203;28;96801;-65
2022/09/17 01:28:14;;;;;;;8.80;1.40;;;;;;;15.88;66.30;99989.72;5029554;28;102758;-66
2022/09/17 01:31:00;;;;;;;14.18;2.45;;;;;;;16.26;64.71;99992.34;5029172;28;101895;-68
2022/09/17 01:33:36;;;;;;;7.65;1.70;;;;;;;16.17;64.61;99987.66;5032534;28;96676;-66
2022/09/17 01:36:13;;;;;;;8.63;1.52;;;;;;;16.31;64.52;99990.22;5034520;28;96983;-65
2022/09/17 01:38:50;;;;;;;10.73;2.08;;;;;;;16.09;64.63;99988.19;5033495;28;99242;-66
2022/09/17 01:41:27;;;;;;;5.93;1.33;;;;;;;16.46;63.92;99990.94;5030042;28;101088;-65
2022/09/17 01:44:01;;;;;;;9.93;1.85;;;;;;;16.33;64.17;99991.81;5033866;28;96646;-66
2022/09/17 01:46:35;;;;;;;6.13;1.63;;;;;;;16.47;63.65;100000.66;5033668;27;96781;-66
2022/09/17 01:49:07;;;;;;;10.77;1.38;;;;;;;16.74;62.69;100004.00;5033798;27;98525;-66
2022/09/17 01:51:38;;;;;;;4.82;1.48;;;;;;;16.70;63.09;100002.53;5033829;27;101491;-66
2022/09/17 01:54:10;;;;;;;10.48;1.92;;;;;;;16.78;63.15;99999.31;5034306;27;96749;-66
2022/09/17 01:56:41;;;;;;;8.30;1.60;;;;;;;16.74;63.29;100001.34;5034293;27;96731;-65
2022/09/17 01:59:16;;;;;;;7.93;1.52;;;;;;;16.51;64.15;100002.97;5034213;27;98171;-65
2022/09/17 02:01:48;;;;;;;11.20;1.80;;;;;;;16.23;65.74;100008.56;5034368;28;97539;-65
2022/09/17 02:04:20;;;;;;;9.80;1.80;;;;;;;16.45;64.94;100008.75;5030377;27;96913;-65
2022/09/17 02:06:55;;;;;;;5.03;1.02;;;;;;;16.21;65.64;100021.16;5029959;28;96747;-65
2022/09/17 02:09:28;;;;;;;7.97;1.50;;;;;;;16.19;65.94;100015.94;5027203;27;99528;-65
2022/09/17 02:11:59;;;;;;;9.45;1.92;;;;;;;16.37;65.55;100018.25;5033132;28;99602;-66
2022/09/17 02:14:29;;;;;;;7.95;2.13;;;;;;;16.45;65.25;100018.56;5033490;28;96837;-66
2022/09/17 02:17:03;;;;;;;10.40;1.63;;;;;;;16.60;64.91;100018.38;5033409;28;97227;-66
2022/09/17 02:19:34;;;;;;;6.72;1.75;;;;;;;16.72;64.41;100016.63;5033920;27;99611;-66
2022/09/17 02:22:03;;;;;;;8.40;2.05;;;;;;;17.01;63.41;100017.16;5033221;27;99254;-65
2022/09/17 02:24:36;;;;;;;6.60;1.65;;;;;;;16.81;64.03;100020.41;5033568;28;96909;-65
2022/09/17 02:27:07;;;;;;;5.25;1.45;;;;;;;16.90;63.40;100015.28;5033729;27;96846;-65
2022/09/17 02:29:38;;;;;;;9.80;1.77;;;;;;;16.67;64.39;100018.78;5033342;28;99532;-65
2022/09/17 02:32:06;;;;;;;10.57;2.00;;;;;;;16.79;64.50;100015.22;5033129;27;98893;-66
2022/09/17 02:34:33;;;;;;;9.90;1.88;;;;;;;16.77;64.47;100009.13;5032951;28;97047;-67
2022/09/17 02:37:00;;;;;;;9.52;2.15;;;;;;;16.86;63.81;100005.81;5031588;27;96793;-65
2022/09/17 02:39:29;;;;;;;8.60;1.88;;;;;;;16.88;63.85;100011.84;5033028;27;98300;-65
2022/09/17 02:42:08;;;;;;;9.52;2.30;;;;;;;16.78;64.60;100013.50;5033165;27;99088;-66
2022/09/17 02:44:42;;;;;;;8.00;1.65;;;;;;;16.85;64.16;100011.25;5031444;28;97425;-65
2022/09/17 02:47:34;;;;;;;10.10;1.83;;;;;;;16.79;64.55;100006.34;5028294;27;96914;-66
2022/09/17 02:50:18;;;;;;;9.98;2.28;;;;;;;16.95;64.08;100007.78;5030860;28;99132;-66
2022/09/17 02:52:59;;;;;;;9.15;1.95;;;;;;;16.76;64.23;100010.09;5030745;28;98975;-64
2022/09/17 02:55:37;;;;;;;7.80;1.73;;;;;;;16.72;64.82;100009.47;5031936;28;96767;-65
2022/09/17 02:58:12;;;;;;;8.77;2.15;;;;;;;16.95;64.25;100004.25;5031494;28;96800;-66
2022/09/17 03:00:40;;;;;;;18.13;2.70;;;;;;;16.77;64.42;99998.47;5027188;28;99046;-66
2022/09/17 03:03:12;;;;;;;12.57;1.73;;;;;;;16.35;65.98;100005.00;5032712;28;99114;-65
2022/09/17 03:05:44;;;;;;;12.20;1.92;;;;;;;16.32;65.54;100002.59;5032752;27;96793;-65
2022/09/17 03:08:14;;;;;;;11.90;1.73;;;;;;;16.61;65.14;99997.84;5032949;28;96773;-65
2022/09/17 03:10:41;;;;;;;8.57;1.75;;;;;;;16.66;64.93;100001.06;5032802;27;97661;-65
2022/09/17 03:13:09;;;;;;;9.40;2.22;;;;;;;16.63;64.98;100004.78;5032571;27;99762;-66
2022/09/17 03:15:36;;;;;;;7.82;1.85;;;;;;;16.56;64.88;100000.81;5032587;28;96913;-66
2022/09/17 03:18:02;;;;;;;12.27;2.88;;;;;;;16.59;64.92;99997.09;5032950;27;96912;-66
2022/09/17 03:20:30;;;;;;;9.40;1.65;;;;;;;16.88;64.01;100009.19;5031846;27;98972;-65
2022/09/17 03:22:56;;;;;;;16.90;2.22;;;;;;;16.91;63.75;100000.97;5032403;28;98816;-66
2022/09/17 03:25:23;;;;;;;15.70;1.85;;;;;;;16.91;63.88;100002.78;5031859;27;96731;-65
2022/09/17 03:27:51;;;;;;;15.85;2.20;;;;;;;16.95;63.53;100005.13;5032568;27;96839;-66
2022/09/17 03:30:18;;;;;;;9.27;1.60;;;;;;;16.83;63.86;100000.69;5032127;28;99443;-65
2022/09/17 03:32:45;;;;;;;12.00;1.60;;;;;;;16.85;63.56;100000.56;5028562;28;100951;-65
2022/09/17 03:35:12;;;;;;;6.00;1.30;;;;;;;16.95;63.20;100004.25;5032027;27;96824;-66
2022/09/17 03:37:42;;;;;;;18.55;1.95;;;;;;;16.91;63.40;100006.31;5028573;27;96834;-66
2022/09/17 03:40:09;;;;;;;13.80;2.95;;;;;;;16.59;64.43;99999.75;5032227;28;99152;-66
2022/09/17 03:42:36;;;;;;;10.90;1.35;;;;;;;16.85;63.27;100000.56;5033351;28;99182;-64
2022/09/17 03:45:02;;;;;;;5.57;1.60;;;;;;;16.85;63.33;100012.09;5033145;28;97229;-65
2022/09/17 03:47:31;;;;;;;10.50;2.05;;;;;;;16.29;64.49;100016.97;5032938;28;96893;-67
2022/09/17 03:49:59;;;;;;;8.48;1.80;;;;;;;16.18;65.19;100016.88;5031717;27;98949;-68
2022/09/17 03:52:26;;;;;;;12.85;1.67;;;;;;;15.88;67.06;100006.53;5032133;28;101889;-67
2022/09/17 03:54:54;;;;;;;6.70;1.75;;;;;;;16.03;66.54;100014.41;5032245;27;97379;-67
2022/09/17 03:57:21;;;;;;;9.50;1.75;;;;;;;16.43;65.06;100024.00;5032427;28;96778;-67
2022/09/17 03:59:47;;;;;;;11.52;1.50;;;;;;;16.19;65.61;100017.75;5032088;27;99831;-67
2022/09/17 04:02:14;;;;;;;11.05;1.35;;;;;;;15.94;66.61;100019.44;5031685;28;99756;-68
2022/09/17 04:04:41;;;;;;;10.57;2.15;;;;;;;16.22;65.63;100021.03;5031882;27;96789;-68
2022/09/17 04:07:07;;;;;;;9.98;1.70;;;;;;;16.41;64.88;100022.41;5032913;28;96798;-67
2022/09/17 04:09:33;;;;;;;9.73;1.75;;;;;;;16.65;64.55;100028.69;5032234;27;99193;-67
2022/09/17 04:12:02;;;;;;;11.38;2.08;;;;;;;16.84;63.28;100023.72;5031717;27;98881;-68
2022/09/17 04:14:28;;;;;;;12.30;2.17;;;;;;;16.39;64.17;100025.19;5031547;27;96783;-67
2022/09/17 04:16:54;;;;;;;11.75;2.25;;;;;;;16.40;64.30;100023.38;5031715;27;96681;-67
2022/09/17 04:19:21;;;;;;;12.52;2.25;;;;;;;16.25;65.00;100026.16;5031994;28;98156;-67
2022/09/17 04:21:47;;;;;;;7.75;1.30;;;;;;;16.64;64.30;100024.31;5031392;27;99253;-66
2022/09/17 04:24:14;;;;;;;9.07;1.92;;;;;;;16.78;63.29;100021.50;5031836;27;96706;-67
2022/09/17 04:26:40;;;;;;;14.30;2.88;;;;;;;16.82;63.03;100025.66;5031704;27;97032;-67
2022/09/17 04:29:09;;;;;;;10.35;1.63;;;;;;;16.85;63.21;100027.25;5031333;27;97811;-66
2022/09/17 04:31:39;;;;;;;12.95;1.70;;;;;;;16.75;62.94;100029.72;5031651;27;99081;-67
2022/09/17 04:34:05;;;;;;;11.85;1.80;;;;;;;16.09;65.08;100033.50;5032763;28;96732;-67
2022/09/17 04:36:32;;;;;;;10.43;1.98;;;;;;;16.78;63.31;100034.84;5035528;28;96924;-67
2022/09/17 04:38:58;;;;;;;9.18;1.83;;;;;;;16.69;63.09;100036.34;5034471;27;99147;-68
2022/09/17 04:41:25;;;;;;;11.55;2.05;;;;;;;16.86;62.88;100027.16;5034708;27;99211;-67
2022/09/17 04:43:51;;;;;;;8.05;1.92;;;;;;;16.96;62.13;100032.66;5035076;28;96868;-67
2022/09/17 04:46:19;;;;;;;8.15;1.33;;;;;;;16.88;62.20;100033.22;5031893;28;96842;-68
2022/09/17 04:48:46;;;;;;;15.82;2.03;;;;;;;16.92;61.83;100032.03;5035001;28;99237;-67
2022/09/17 04:51:12;;;;;;;10.85;1.88;;;;;;;16.90;62.32;100033.09;5034699;28;99328;-68
2022/09/17 04:53:38;;;;;;;11.10;1.73;;;;;;;17.00;62.10;100029.63;5034970;28;96748;-67
2022/09/17 04:56:05;;;;;;;9.18;1.58;;;;;;;17.22;61.50;100028.06;5035127;27;97147;-67
2022/09/17 04:58:32;;;;;;;8.93;1.60;;;;;;;17.06;61.60;100029.22;5034751;28;98887;-66
2022/09/17 05:01:00;;;;;;;7.10;1.30;;;;;;;17.03;62.04;100032.09;5031826;27;98058;-67
2022/09/17 05:03:30;;;;;;;12.45;1.70;;;;;;;17.01;61.76;100043.84;5027904;28;96865;-67
2022/09/17 05:05:57;;;;;;;9.57;2.03;;;;;;;17.11;61.74;100040.41;5034457;27;96776;-67
2022/09/17 05:08:24;;;;;;;10.82;1.58;;;;;;;17.09;61.75;100038.81;5034459;28;98407;-68
2022/09/17 05:10:52;;;;;;;10.18;2.78;;;;;;;17.19;61.35;100036.31;5035901;28;100237;-67
2022/09/17 05:13:23;;;;;;;10.05;1.65;;;;;;;16.86;62.43;100045.84;5035060;28;97648;-69
2022/09/17 05:15:50;;;;;;;12.57;1.83;;;;;;;16.80;62.54;100040.94;5032857;28;97002;-65
2022/09/17 05:18:16;;;;;;;6.22;1.20;;;;;;;16.81;62.52;100047.09;5034271;28;99702;-65
2022/09/17 05:20:44;;;;;;;12.35;2.40;;;;;;;16.85;62.81;100049.47;5032698;28;100193;-65
2022/09/17 05:23:11;;;;;;;12.30;1.88;;;;;;;17.00;62.66;100048.31;5034242;28;96740;-66
2022/09/17 05:25:37;;;;;;;5.30;1.63;;;;;;;17.22;61.92;100052.09;5034691;27;97214;-65
2022/09/17 05:28:07;;;;;;;12.50;1.65;;;;;;;17.37;61.43;100056.31;5033719;28;98926;-67
2022/09/17 05:30:34;;;;;;;10.05;1.88;;;;;;;17.49;60.61;100050.03;5034336;27;97492;-65
2022/09/17 05:33:03;;;;;;;8.35;1.58;;;;;;;17.58;60.41;100054.72;5034130;27;96733;-66
2022/09/17 05:35:30;;;;;;;8.57;1.90;;;;;;;17.34;61.15;100062.72;5034134;27;96878;-66
2022/09/17 05:38:03;;;;;;;12.23;1.92;;;;;;;17.40;60.88;100061.41;5033850;28;99424;-66
2022/09/17 05:40:31;;;;;;;12.10;2.38;;;;;;;17.38;60.99;100055.34;5034261;28;98843;-68
2022/09/17 05:42:59;;;;;;;14.20;2.28;;;;;;;17.31;61.18;100056.78;5034098;27;96803;-66
2022/09/17 05:45:28;;;;;;;11.73;1.95;;;;;;;17.51;60.80;100056.13;5034562;28;96796;-66
2022/09/17 05:47:55;;;;;;;15.93;2.63;;;;;;;17.57;60.62;100062.84;5033311;27;98983;-66
2022/09/17 05:50:26;;;;;;;14.27;2.22;;;;;;;17.36;61.30;100068.81;5033826;28;99226;-66
2022/09/17 05:52:56;;;;;;;7.45;1.52;;;;;;;17.21;62.19;100074.41;5033618;27;96996;-65
2022/09/17 05:55:27;;;;;;;10.75;2.20;;;;;;;17.33;61.61;100065.50;5032261;27;97927;-65
2022/09/17 05:57:57;;;;;;;9.57;2.08;;;;;;;17.43;61.48;100072.72;5033455;27;99113;-66
2022/09/17 06:00:23;;;;;;;8.80;1.70;;;;;;;16.80;63.66;100075.63;5033242;27;98799;-66
2022/09/17 06:02:54;;;;;;;9.95;1.55;;;;;;;16.85;63.44;100075.28;5033875;27;96734;-66
2022/09/17 06:05:20;;;;;;;13.25;2.15;;;;;;;16.92;63.56;100077.41;5033773;28;96711;-65
2022/09/17 06:07:48;;;;;;;12.43;2.42;;;;;;;17.12;63.05;100087.50;5033692;27;98905;-66
2022/09/17 06:10:17;;;;;;;11.30;2.58;;;;;;;17.27;62.34;100077.47;5031360;28;98418;-65
2022/09/17 06:12:46;;;;;;;18.75;3.22;;;;;;;17.09;62.54;100085.03;5034198;27;96727;-67
2022/09/17 06:15:13;;;;;;;16.10;3.33;;;;;;;17.09;62.88;100090.38;5033185;27;96907;-66
2022/09/17 06:17:40;;;;;;;18.80;4.13;;;;;;;17.08;62.44;100090.47;5032667;27;98873;-66
2022/09/17 06:20:08;;;;;;;14.85;3.08;;;;;;;17.13;62.47;100088.34;5033468;28;98135;-66
2022/09/17 06:22:34;;;;;;;18.27;3.30;;;;;;;17.17;62.02;100086.28;5034692;27;96714;-66
2022/09/17 06:25:02;;;;;;;20.15;3.45;;;;;;;16.98;62.42;100092.97;5033231;27;96882;-66
2022/09/17 06:27:30;;;;;;;19.38;3.72;;;;;;;16.91;62.70;100090.84;5032968;28;98995;-66
2022/09/17 06:30:04;;;;;;;21.73;3.05;;;;;;;17.18;62.42;100093.34;5033087;27;98187;-65
2022/09/17 06:32:33;;;;;;;19.13;3.47;;;;;;;17.10;62.24;100097.41;5033183;28;96758;-66
2022/09/17 06:35:00;;;;;;;23.73;3.30;;;;;;;17.00;62.27;100101.69;5033661;28;97192;-66
2022/09/17 06:37:28;;;;;;;21.45;3.40;;;;;;;17.08;62.36;100106.50;5033118;28;99409;-66
2022/09/17 06:39:55;;;;;;;20.80;4.28;;;;;;;16.90;62.50;100099.81;5033096;27;98820;-65
2022/09/17 06:42:22;;;;;;;25.83;3.67;;;;;;;16.91;62.69;100112.19;5032957;28;96927;-65
2022/09/17 06:44:49;;;;;;;17.58;3.95;;;;;;;16.61;63.42;100104.53;5033056;27;96816;-67
2022/09/17 06:47:24;;;;;;;19.40;4.00;;;;;;;16.81;62.00;100101.31;5028517;28;99340;-66
2022/09/17 06:49:51;;;;;;;23.30;4.00;;;;;;;16.93;61.58;100105.81;5033366;28;98093;-67
2022/09/17 06:52:18;;;;;;;15.07;3.53;;;;;;;16.56;61.91;100107.50;5033105;28;96774;-66
2022/09/17 06:54:44;;;;;;;18.25;2.95;;;;;;;16.66;62.00;100115.75;5031616;27;96889;-66
2022/09/17 06:57:11;;;;;;;24.90;4.15;;;;;;;16.72;60.94;100108.19;5032931;28;99443;-65
2022/09/17 06:59:38;;;;;;;26.08;3.85;;;;;;;16.08;63.42;100114.41;5033358;28;98953;-66
2022/09/17 07:02:06;;;;;;;20.08;3.85;;;;;;;16.45;61.94;100109.22;5033059;27;97142;-65
2022/09/17 07:04:35;;;;;;;19.27;4.47;;;;;;;16.91;60.70;100118.41;5032723;27;96869;-66
2022/09/17 07:07:01;;;;;;;19.30;3.40;;;;;;;16.78;61.03;100112.22;5031744;27;97851;-67
2022/09/17 07:09:30;;;;;;;19.40;3.05;;;;;;;16.84;60.35;100117.13;5032743;27;99387;-66
2022/09/17 07:12:01;;;;;;;22.80;3.40;;;;;;;16.88;60.43;100113.25;5032728;28;96907;-65
2022/09/17 07:14:28;;;;;;;20.95;3.45;;;;;;;17.19;59.44;100111.06;5032751;28;97167;-67
2022/09/17 07:16:55;;;;;;;17.10;3.05;;;;;;;17.55;58.41;100113.69;5033246;27;101601;-66
2022/09/17 07:19:21;;;;;;;16.63;3.30;;;;;;;17.42;58.80;100118.25;5032474;28;98195;-66
2022/09/17 07:21:54;;;;;;;20.67;3.25;;;;;;;17.58;57.92;100108.13;5032840;27;96793;-66
2022/09/17 07:24:20;;;;;;;17.63;3.67;;;;;;;17.61;57.46;100118.63;5027556;28;97091;-66
2022/09/17 07:26:50;;;;;;;15.88;3.33;;;;;;;17.42;57.69;100124.44;5032115;27;99657;-67
2022/09/17 07:29:17;;;;;;;16.95;3.63;;;;;;;17.51;57.88;100115.75;5027328;28;98363;-66
2022/09/17 07:31:44;;;;;;;23.08;3.03;;;;;;;17.25;57.76;100115.97;5031594;28;97394;-68
2022/09/17 07:34:14;;;;;;;15.40;3.35;;;;;;;16.93;59.04;100112.94;5032527;27;96984;-65
2022/09/17 07:36:40;;;;;;;15.63;3.05;;;;;;;17.07;58.92;100118.13;5032435;27;98182;-66
2022/09/17 07:39:12;;;;;;;13.52;2.75;;;;;;;17.36;57.75;100113.34;5032076;28;99244;-66
2022/09/17 07:41:40;;;;;;;20.67;3.08;;;;;;;17.51;57.31;100117.56;5032863;27;97305;-67
2022/09/17 07:44:08;;;;;;;17.67;3.47;;;;;;;17.43;56.70;100112.78;5032445;27;96773;-66
2022/09/17 07:46:36;;;;;;;21.25;2.67;;;;;;;17.44;57.15;100116.31;5031442;27;97662;-67
2022/09/17 07:49:02;;;;;;;18.05;2.28;;;;;;;17.91;56.37;100115.47;5032281;28;98879;-66
2022/09/17 07:51:29;;;;;;;17.48;3.45;;;;;;;17.97;55.61;100112.34;5032353;28;96821;-67
2022/09/17 07:53:57;;;;;;;11.07;2.17;;;;;;;18.08;54.78;100111.50;5032124;27;96869;-67
2022/09/17 07:56:27;;;;;;;17.20;2.35;;;;;;;17.34;56.53;100115.28;5031171;28;100762;-66
2022/09/17 07:58:54;;;;;;;24.00;3.47;;;;;;;16.99;57.67;100116.03;5028810;28;98845;-69
2022/09/17 08:01:21;;;;;;;12.70;2.63;;;;;;;17.50;56.66;100122.06;5025826;28;96795;-65
2022/09/17 08:03:49;;;;;;;12.68;2.33;;;;;;;17.55;56.06;100124.38;5032251;28;96840;-66
2022/09/17 08:06:18;;;;;;;13.35;3.00;;;;;;;17.92;54.97;100117.16;5032314;27;98932;-67
2022/09/17 08:08:45;;;;;;;16.30;2.40;;;;;;;17.57;55.60;100118.94;5035650;28;101826;-66
2022/09/17 08:11:18;;;;;;;15.77;3.25;;;;;;;17.81;55.20;100128.66;5035892;27;96962;-66
2022/09/17 08:13:49;;;;;;;12.55;1.98;;;;;;;17.85;54.83;100115.94;5032128;28;97119;-66
2022/09/17 08:16:16;;;;;;;15.02;2.38;;;;;;;17.91;55.05;100119.00;5028811;28;100239;-69
2022/09/17 08:18:46;;;;;;;15.38;2.58;;;;;;;18.00;54.65;100113.91;5031128;28;100371;-66
2022/09/17 08:21:15;;;;;;;15.20;2.78;;;;;;;17.46;55.74;100117.03;5033891;28;97077;-68
2022/09/17 08:23:42;;;;;;;14.05;2.75;;;;;;;17.08;56.33;100119.84;5032342;28;96917;-68
2022/09/17 08:26:13;;;;;;;11.43;1.85;;;;;;;16.99;56.92;100118.69;5032811;28;98809;-66
2022/09/17 08:28:43;;;;;;;14.27;2.15;;;;;;;17.45;55.62;100118.03;5033448;28;99221;-65
2022/09/17 08:31:12;;;;;;;11.52;2.60;;;;;;;17.32;55.47;100112.75;5035731;28;97568;-66
2022/09/17 08:33:40;;;;;;;15.05;2.33;;;;;;;17.61;54.35;100110.59;5035578;28;96908;-66
2022/09/17 08:36:10;;;;;;;9.60;1.75;;;;;;;17.41;54.01;100106.69;5034809;27;98901;-67
2022/09/17 08:38:37;;;;;;;11.35;2.10;;;;;;;18.14;52.56;100111.03;5035260;28;98644;-67
2022/09/17 08:41:18;;;;;;;13.23;2.22;;;;;;;17.44;52.16;100113.66;5034640;27;96757;-69
2022/09/17 08:44:01;;;;;;;9.63;1.85;;;;;;;17.61;52.81;100109.75;5035654;28;97242;-68
2022/09/17 08:46:32;;;;;;;11.75;2.53;;;;;;;18.35;51.07;100105.84;5032336;28;98869;-67
2022/09/17 08:49:13;;;;;;;22.10;2.83;;;;;;;17.80;51.73;100113.59;5034816;28;99310;-66
2022/09/17 08:51:54;;;;;;;14.65;2.50;;;;;;;17.48;53.09;100118.63;5034701;28;96734;-66
2022/09/17 08:54:31;;;;;;;11.63;1.98;;;;;;;18.02;51.48;100110.16;5030638;28;96742;-67
2022/09/17 08:57:11;;;;;;;15.38;2.33;;;;;;;17.89;51.53;100107.56;5034668;28;99102;-66
2022/09/17 08:59:43;;;;;;;14.02;2.25;;;;;;;18.11;51.35;100112.13;5034830;28;100670;-66
2022/09/17 09:02:23;;;;;;;18.65;3.20;;;;;;;18.44;50.01;100116.72;5034786;28;97107;-68
2022/09/17 09:05:01;;;;;;;16.92;2.95;;;;;;;17.59;51.17;100123.16;5034910;27;98002;-66
2022/09/17 09:07:34;;;;;;;21.40;2.88;;;;;;;17.43;52.01;100125.28;5031557;28;100503;-67
2022/09/17 09:10:14;;;;;;;14.30;2.38;;;;;;;17.26;51.54;100131.88;5032511;28;99135;-65
2022/09/17 09:12:41;;;;;;;10.10;2.28;;;;;;;17.57;51.26;100134.97;5034717;27;96637;-66
2022/09/17 09:15:22;;;;;;;9.35;1.70;;;;;;;17.58;50.60;100134.84;5034398;28;96786;-66
2022/09/17 09:17:52;;;;;;;11.25;2.35;;;;;;;18.17;49.91;100126.84;5033616;27;99245;-66
2022/09/17 09:20:25;;;;;;;13.30;2.47;;;;;;;18.20;49.02;100127.47;5034159;28;98886;-66
2022/09/17 09:22:54;;;;;;;14.50;2.17;;;;;;;18.64;48.28;100134.72;5034728;27;96999;-65
2022/09/17 09:25:32;;;;;;;15.15;2.42;;;;;;;17.97;49.02;100132.88;5034406;28;96932;-66
2022/09/17 09:28:15;;;;;;;10.50;2.00;;;;;;;17.76;48.87;100141.53;5031356;27;100845;-66
2022/09/17 09:31:10;;;;;;;10.27;1.63;;;;;;;17.81;49.13;100142.03;5029797;28;99019;-67
2022/09/17 09:33:41;;;;;;;12.65;2.20;;;;;;;18.61;47.60;100143.03;5033685;28;96877;-65
2022/09/17 09:36:14;;;;;;;10.88;2.40;;;;;;;18.87;47.00;100145.47;5034078;27;97168;-67
2022/09/17 09:38:47;;;;;;;11.10;2.25;;;;;;;18.56;47.54;100141.69;5033837;28;97590;-66
2022/09/17 09:41:19;;;;;;;13.38;1.88;;;;;;;18.66;48.15;100146.19;5034088;27;99180;-66
2022/09/17 09:43:47;;;;;;;14.95;2.10;;;;;;;18.24;49.15;100161.03;5034264;27;96692;-65
2022/09/17 09:46:33;;;;;;;13.82;2.35;;;;;;;17.85;51.03;100161.38;5033769;27;97101;-66
2022/09/17 09:49:15;;;;;;;14.77;1.65;;;;;;;18.06;52.21;100172.25;5032031;28;99618;-66
2022/09/17 09:51:53;;;;;;;17.73;2.75;;;;;;;18.17;52.08;100166.97;5033969;28;98868;-68
2022/09/17 09:54:31;;;;;;;9.23;2.20;;;;;;;18.58;51.46;100161.13;5031578;28;97115;-66
2022/09/17 09:57:06;;;;;;;16.52;2.20;;;;;;;18.99;50.64;100179.28;5034952;27;97066;-65
2022/09/17 09:59:35;;;;;;;15.82;3.00;;;;;;;19.02;49.58;100163.84;5032878;28;100291;-67
2022/09/17 10:02:02;;;;;;;10.98;2.05;;;;;;;18.68;49.61;100157.63;5032093;28;98890;-67
2022/09/17 10:04:32;;;;;;;8.00;1.35;;;;;;;18.86;49.13;100163.34;5032414;28;96792;-66
2022/09/17 10:07:02;;;;;;;14.48;1.92;;;;;;;19.37;46.96;100158.31;5031718;28;97048;-66
2022/09/17 10:09:31;;;;;;;10.15;2.33;;;;;;;19.62;46.37;100154.53;5027318;28;98881;-66
2022/09/17 10:12:04;;;;;;;12.18;1.92;;;;;;;19.71;46.95;100155.59;5031174;28;99566;-65
2022/09/17 10:14:32;;;;;;;7.85;1.80;;;;;;;19.60;45.74;100150.28;5027790;28;98160;-66
2022/09/17 10:17:21;;;;;;;14.30;2.30;;;;;;;19.34;44.14;100163.09;5033334;27;97249;-66
2022/09/17 10:20:13;;;;;;;13.38;2.17;;;;;;;19.28;44.84;100158.22;5028988;27;99064;-67
2022/09/17 10:22:41;;;;;;;14.30;2.78;;;;;;;19.38;44.08;100168.06;5027556;28;98860;-66
2022/09/17 10:25:31;;;;;;;13.68;2.58;;;;;;;19.87;42.30;100158.72;5033403;28;96874;-66
2022/09/17 10:28:00;;;;;;;15.23;2.22;;;;;;;19.62;42.85;100169.78;5031168;28;96915;-66
2022/09/17 10:30:27;;;;;;;13.13;2.38;;;;;;;19.57;43.48;100175.47;5027899;28;97918;-67
2022/09/17 10:33:19;;;;;;;12.98;1.98;;;;;;;19.15;45.04;100173.59;5033538;27;98983;-66
2022/09/17 10:36:03;;;;;;;12.93;2.20;;;;;;;19.46;45.20;100184.41;5033297;27;96819;-66
2022/09/17 10:38:33;;;;;;;10.68;1.92;;;;;;;19.44;44.60;100180.09;5033490;28;98087;-67
2022/09/17 10:41:10;;;;;;;12.02;1.92;;;;;;;19.58;42.82;100179.03;5033002;28;99084;-66
2022/09/17 10:43:38;;;;;;;;;;;;;;;19.58;42.51;100182.56;5034019;28;99710;-66
2022/09/17 10:46:09;;;;;;;16.65;1.83;;;;;;;19.76;42.70;100183.72;5033000;28;96829;-67
2022/09/17 10:48:41;;;;;;;14.57;2.22;;;;;;;19.60;42.81;100180.59;5034065;27;97140;-67
2022/09/17 10:51:10;;;;;;;12.88;2.20;;;;;;;19.76;42.23;100177.50;5031662;27;98829;-66
2022/09/17 10:53:57;;;;;;;12.90;2.10;;;;;;;19.19;44.42;100178.56;5031406;27;99106;-67
2022/09/17 10:56:30;;;;;;;8.98;1.95;;;;;;;18.83;45.61;100181.50;5031432;28;96729;-66
2022/09/17 10:59:12;;;;;;;10.27;1.83;;;;;;;18.78;46.25;100192.53;5033009;28;96806;-67
2022/09/17 11:01:53;;;;;;;10.48;1.75;;;;;;;19.39;45.43;100172.44;5027990;28;99414;-66
2022/09/17 11:04:33;;;;;;;12.45;2.40;;;;;;;19.36;44.76;100174.53;5030979;28;99159;-69
2022/09/17 11:07:21;;;;;;;11.48;2.10;;;;;;;19.85;43.67;100176.75;5033130;27;98510;-67
2022/09/17 11:09:55;;;;;;;7.22;1.48;;;;;;;19.24;43.80;100183.53;5029395;28;96750;-66
2022/09/17 11:12:47;;;;;;;12.52;2.20;;;;;;;19.45;42.85;100182.66;5031388;28;99714;-66
2022/09/17 11:15:30;;;;;;;7.72;1.25;;;;;;;18.83;43.73;100184.16;5032191;27;98048;-68
2022/09/17 11:18:20;;;;;;;13.13;2.00;;;;;;;19.25;43.07;100188.78;5032465;28;97403;-68
2022/09/17 11:21:02;;;;;;;7.43;1.63;;;;;;;19.02;43.40;100185.28;5025701;28;96889;-68
2022/09/17 11:23:54;;;;;;;6.78;1.20;;;;;;;18.25;43.76;100168.06;5028887;28;99404;-68
2022/09/17 11:26:32;;;;;;;6.28;1.58;;;;;;;18.88;43.63;100177.47;5025953;28;101026;-68
2022/09/17 11:29:10;;;;;;;5.82;1.45;;;;;;;19.60;41.69;100177.06;5030424;28;97635;-69
2022/09/17 11:31:46;;;;;;;7.38;1.42;;;;;;;19.78;40.87;100178.25;5032737;28;97117;-67
2022/09/17 11:34:34;;;;;;;7.68;1.35;;;;;;;18.86;41.92;100175.88;5032362;27;100430;-68
2022/09/17 11:37:08;;;;;;;9.55;2.22;;;;;;;18.76;42.57;100180.25;5032566;28;98024;-68
2022/09/17 11:39:44;;;;;;;8.73;1.42;;;;;;;18.75;43.36;100186.59;5027631;28;98028;-67
2022/09/17 11:42:16;;;;;;;7.07;1.35;;;;;;;18.98;42.93;100178.44;5032145;27;96828;-68